sensor_id;sensor_type;location;lat;lon;timestamp;P1;durP1;ratioP1;P2;durP2;ratioP2
2041;SDS011;1026;51.460;7.252;2024-01-16T00:01:31;5.97;;;4.70;;
2041;SDS011;1026;51.460;7.252;2024-01-16T00:04:04;4.83;;;4.33;;
2041;SDS011;1026;51.460;7.252;2024-01-16T00:06:41;5.30;;;4.80;;
2041;SDS011;1026;51.460;7.252;2024-01-16T00:09:11;7.43;;;5.00;;
2041;SDS011;1026;51.460;7.252;2024-01-16T00:11:45;6.53;;;5.17;;
2041;SDS011;1026;51.460;7.252;2024-01-16T00:14:12;7.27;;;5.67;;
2041;SDS011;1026;51.460;7.252;2024-01-16T00:16:45;5.37;;;4.87;;
2041;SDS011;1026;51.460;7.252;2024-01-16T00:19:19;6.77;;;5.70;;
2041;SDS011;1026;51.460;7.252;2024-01-16T00:21:46;4.80;;;3.23;;
2041;SDS011;1026;51.460;7.252;2024-01-16T00:24:13;7.73;;;5.37;;
2041;SDS011;1026;51.460;7.252;2024-01-16T00:26:47;7.60;;;5.40;;
2041;SDS011;1026;51.460;7.252;2024-01-16T00:29:16;4.63;;;4.20;;
2041;SDS011;1026;51.460;7.252;2024-01-16T00:31:49;9.40;;;6.23;;
2041;SDS011;1026;51.460;7.252;2024-01-16T00:34:16;7.57;;;5.20;;
2041;SDS011;1026;51.460;7.252;2024-01-16T00:36:49;5.33;;;4.77;;
2041;SDS011;1026;51.460;7.252;2024-01-16T00:39:16;5.33;;;4.30;;
2041;SDS011;1026;51.460;7.252;2024-01-16T00:41:49;5.83;;;5.10;;
2041;SDS011;1026;51.460;7.252;2024-01-16T00:44:22;6.20;;;4.67;;
2041;SDS011;1026;51.460;7.252;2024-01-16T00:46:49;5.40;;;4.40;;
2041;SDS011;1026;51.460;7.252;2024-01-16T00:49:36;5.50;;;4.17;;
2041;SDS011;1026;51.460;7.252;2024-01-16T00:52:03;4.97;;;4.47;;
2041;SDS011;1026;51.460;7.252;2024-01-16T00:54:37;5.57;;;4.90;;
2041;SDS011;1026;51.460;7.252;2024-01-16T00:57:11;10.37;;;4.93;;
2041;SDS011;1026;51.460;7.252;2024-01-16T00:59:38;4.93;;;3.30;;
2041;SDS011;1026;51.460;7.252;2024-01-16T01:02:18;6.63;;;4.60;;
2041;SDS011;1026;51.460;7.252;2024-01-16T01:04:45;5.87;;;4.50;;
2041;SDS011;1026;51.460;7.252;2024-01-16T01:07:12;7.23;;;5.00;;
2041;SDS011;1026;51.460;7.252;2024-01-16T01:09:47;4.80;;;4.00;;
2041;SDS011;1026;51.460;7.252;2024-01-16T01:12:14;11.50;;;5.50;;
2041;SDS011;1026;51.460;7.252;2024-01-16T01:14:41;5.07;;;4.57;;
2041;SDS011;1026;51.460;7.252;2024-01-16T01:17:14;6.20;;;5.53;;
2041;SDS011;1026;51.460;7.252;2024-01-16T01:19:41;5.27;;;4.73;;
2041;SDS011;1026;51.460;7.252;2024-01-16T01:22:15;7.17;;;4.63;;
2041;SDS011;1026;51.460;7.252;2024-01-16T01:24:42;5.00;;;4.50;;
2041;SDS011;1026;51.460;7.252;2024-01-16T01:27:09;8.53;;;4.70;;
2041;SDS011;1026;51.460;7.252;2024-01-16T01:29:42;6.70;;;4.50;;
2041;SDS011;1026;51.460;7.252;2024-01-16T01:32:09;5.47;;;4.63;;
2041;SDS011;1026;51.460;7.252;2024-01-16T01:34:42;9.03;;;4.60;;
2041;SDS011;1026;51.460;7.252;2024-01-16T01:37:09;6.93;;;4.10;;
2041;SDS011;1026;51.460;7.252;2024-01-16T01:39:36;4.53;;;3.83;;
2041;SDS011;1026;51.460;7.252;2024-01-16T01:42:09;4.60;;;4.10;;
2041;SDS011;1026;51.460;7.252;2024-01-16T01:44:42;4.60;;;3.93;;
2041;SDS011;1026;51.460;7.252;2024-01-16T01:47:22;8.03;;;4.70;;
2041;SDS011;1026;51.460;7.252;2024-01-16T01:49:49;6.67;;;4.60;;
2041;SDS011;1026;51.460;7.252;2024-01-16T01:52:23;5.70;;;3.40;;
2041;SDS011;1026;51.460;7.252;2024-01-16T01:54:56;4.30;;;3.60;;
2041;SDS011;1026;51.460;7.252;2024-01-16T01:57:23;7.60;;;4.13;;
2041;SDS011;1026;51.460;7.252;2024-01-16T01:59:57;4.77;;;4.30;;
2041;SDS011;1026;51.460;7.252;2024-01-16T02:02:24;4.50;;;4.10;;
2041;SDS011;1026;51.460;7.252;2024-01-16T02:04:51;6.53;;;5.30;;
2041;SDS011;1026;51.460;7.252;2024-01-16T02:07:25;4.80;;;3.50;;
2041;SDS011;1026;51.460;7.252;2024-01-16T02:09:52;5.20;;;4.07;;
2041;SDS011;1026;51.460;7.252;2024-01-16T02:12:19;6.83;;;4.07;;
2041;SDS011;1026;51.460;7.252;2024-01-16T02:14:52;5.20;;;3.90;;
2041;SDS011;1026;51.460;7.252;2024-01-16T02:17:19;6.67;;;3.63;;
2041;SDS011;1026;51.460;7.252;2024-01-16T02:19:46;5.10;;;3.27;;
2041;SDS011;1026;51.460;7.252;2024-01-16T02:22:19;7.23;;;3.80;;
2041;SDS011;1026;51.460;7.252;2024-01-16T02:24:49;4.27;;;3.80;;
2041;SDS011;1026;51.460;7.252;2024-01-16T02:27:17;9.97;;;4.70;;
2041;SDS011;1026;51.460;7.252;2024-01-16T02:29:50;5.40;;;3.97;;
2041;SDS011;1026;51.460;7.252;2024-01-16T02:32:17;7.00;;;3.90;;
2041;SDS011;1026;51.460;7.252;2024-01-16T02:34:44;5.03;;;3.73;;
2041;SDS011;1026;51.460;7.252;2024-01-16T02:37:17;7.90;;;4.27;;
2041;SDS011;1026;51.460;7.252;2024-01-16T02:39:44;6.70;;;3.73;;
2041;SDS011;1026;51.460;7.252;2024-01-16T02:42:11;4.80;;;3.97;;
2041;SDS011;1026;51.460;7.252;2024-01-16T02:44:44;3.73;;;3.37;;
2041;SDS011;1026;51.460;7.252;2024-01-16T02:47:11;7.63;;;4.60;;
2041;SDS011;1026;51.460;7.252;2024-01-16T02:49:58;3.80;;;3.50;;
2041;SDS011;1026;51.460;7.252;2024-01-16T02:52:26;4.40;;;4.00;;
2041;SDS011;1026;51.460;7.252;2024-01-16T02:54:59;6.27;;;4.73;;
2041;SDS011;1026;51.460;7.252;2024-01-16T02:57:32;4.93;;;4.53;;
2041;SDS011;1026;51.460;7.252;2024-01-16T02:59:59;4.90;;;4.37;;
2041;SDS011;1026;51.460;7.252;2024-01-16T03:02:32;4.20;;;3.80;;
2041;SDS011;1026;51.460;7.252;2024-01-16T03:04:59;4.07;;;3.67;;
2041;SDS011;1026;51.460;7.252;2024-01-16T03:07:26;6.27;;;4.73;;
2041;SDS011;1026;51.460;7.252;2024-01-16T03:09:59;3.60;;;3.30;;
2041;SDS011;1026;51.460;7.252;2024-01-16T03:12:32;8.20;;;4.57;;
2041;SDS011;1026;51.460;7.252;2024-01-16T03:14:59;3.80;;;3.50;;
2041;SDS011;1026;51.460;7.252;2024-01-16T03:17:26;6.43;;;4.90;;
2041;SDS011;1026;51.460;7.252;2024-01-16T03:20:00;4.00;;;3.60;;
2041;SDS011;1026;51.460;7.252;2024-01-16T03:22:29;6.93;;;4.70;;
2041;SDS011;1026;51.460;7.252;2024-01-16T03:25:02;5.70;;;5.00;;
2041;SDS011;1026;51.460;7.252;2024-01-16T03:27:29;7.00;;;6.27;;
2041;SDS011;1026;51.460;7.252;2024-01-16T03:29:56;4.80;;;3.93;;
2041;SDS011;1026;51.460;7.252;2024-01-16T03:32:30;7.60;;;6.23;;
2041;SDS011;1026;51.460;7.252;2024-01-16T03:34:57;6.70;;;5.70;;
2041;SDS011;1026;51.460;7.252;2024-01-16T03:37:30;5.77;;;5.13;;
2041;SDS011;1026;51.460;7.252;2024-01-16T03:39:57;9.07;;;7.90;;
2041;SDS011;1026;51.460;7.252;2024-01-16T03:42:31;9.47;;;7.10;;
2041;SDS011;1026;51.460;7.252;2024-01-16T03:44:58;8.40;;;5.80;;
2041;SDS011;1026;51.460;7.252;2024-01-16T03:47:31;10.97;;;8.13;;
2041;SDS011;1026;51.460;7.252;2024-01-16T03:50:11;15.20;;;10.67;;
2041;SDS011;1026;51.460;7.252;2024-01-16T03:52:44;11.90;;;8.60;;
2041;SDS011;1026;51.460;7.252;2024-01-16T03:55:11;14.00;;;10.60;;
2041;SDS011;1026;51.460;7.252;2024-01-16T03:57:44;6.57;;;5.90;;
2041;SDS011;1026;51.460;7.252;2024-01-16T04:00:17;14.90;;;10.37;;
2041;SDS011;1026;51.460;7.252;2024-01-16T04:02:44;17.50;;;13.67;;
2041;SDS011;1026;51.460;7.252;2024-01-16T04:05:12;13.53;;;10.67;;
2041;SDS011;1026;51.460;7.252;2024-01-16T04:07:45;8.30;;;6.37;;
2041;SDS011;1026;51.460;7.252;2024-01-16T04:10:12;10.70;;;9.57;;
2041;SDS011;1026;51.460;7.252;2024-01-16T04:12:39;9.60;;;7.73;;
2041;SDS011;1026;51.460;7.252;2024-01-16T04:15:12;13.83;;;8.90;;
2041;SDS011;1026;51.460;7.252;2024-01-16T04:17:39;12.40;;;10.13;;
2041;SDS011;1026;51.460;7.252;2024-01-16T04:20:12;13.63;;;9.83;;
2041;SDS011;1026;51.460;7.252;2024-01-16T04:22:46;16.23;;;10.63;;
2041;SDS011;1026;51.460;7.252;2024-01-16T04:25:20;11.60;;;9.03;;
2041;SDS011;1026;51.460;7.252;2024-01-16T04:27:47;10.50;;;7.80;;
2041;SDS011;1026;51.460;7.252;2024-01-16T04:30:14;11.87;;;8.90;;
2041;SDS011;1026;51.460;7.252;2024-01-16T04:32:47;12.50;;;9.67;;
2041;SDS011;1026;51.460;7.252;2024-01-16T04:35:14;11.83;;;6.70;;
2041;SDS011;1026;51.460;7.252;2024-01-16T04:37:47;11.63;;;8.33;;
2041;SDS011;1026;51.460;7.252;2024-01-16T04:40:20;11.13;;;7.47;;
2041;SDS011;1026;51.460;7.252;2024-01-16T04:42:54;7.70;;;6.63;;
2041;SDS011;1026;51.460;7.252;2024-01-16T04:45:21;12.00;;;9.70;;
2041;SDS011;1026;51.460;7.252;2024-01-16T04:47:54;14.73;;;9.90;;
2041;SDS011;1026;51.460;7.252;2024-01-16T04:50:34;12.70;;;9.60;;
2041;SDS011;1026;51.460;7.252;2024-01-16T04:53:08;10.40;;;7.63;;
2041;SDS011;1026;51.460;7.252;2024-01-16T04:55:35;12.00;;;7.87;;
2041;SDS011;1026;51.460;7.252;2024-01-16T04:58:08;15.97;;;6.83;;
2041;SDS011;1026;51.460;7.252;2024-01-16T05:00:36;10.33;;;9.30;;
2041;SDS011;1026;51.460;7.252;2024-01-16T05:03:09;9.43;;;7.57;;
2041;SDS011;1026;51.460;7.252;2024-01-16T05:05:42;10.63;;;8.70;;
2041;SDS011;1026;51.460;7.252;2024-01-16T05:11:27;16.73;;;8.40;;
2041;SDS011;1026;51.460;7.252;2024-01-16T05:13:54;10.40;;;7.60;;
2041;SDS011;1026;51.460;7.252;2024-01-16T05:16:24;7.10;;;5.80;;
2041;SDS011;1026;51.460;7.252;2024-01-16T05:18:57;7.00;;;5.70;;
2041;SDS011;1026;51.460;7.252;2024-01-16T05:21:30;7.60;;;6.80;;
2041;SDS011;1026;51.460;7.252;2024-01-16T05:27:23;7.40;;;6.63;;
2041;SDS011;1026;51.460;7.252;2024-01-16T05:29:50;7.80;;;7.00;;
2041;SDS011;1026;51.460;7.252;2024-01-16T05:32:23;8.97;;;7.57;;
2041;SDS011;1026;51.460;7.252;2024-01-16T05:34:51;8.00;;;6.37;;
2041;SDS011;1026;51.460;7.252;2024-01-16T05:37:24;8.33;;;7.53;;
2041;SDS011;1026;51.460;7.252;2024-01-16T05:39:57;10.03;;;6.03;;
2041;SDS011;1026;51.460;7.252;2024-01-16T05:42:24;9.07;;;6.50;;
2041;SDS011;1026;51.460;7.252;2024-01-16T05:44:52;7.70;;;6.67;;
2041;SDS011;1026;51.460;7.252;2024-01-16T05:47:32;8.47;;;5.80;;
2041;SDS011;1026;51.460;7.252;2024-01-16T05:49:59;6.27;;;5.30;;
2041;SDS011;1026;51.460;7.252;2024-01-16T05:52:32;8.50;;;6.70;;
2041;SDS011;1026;51.460;7.252;2024-01-16T05:55:00;10.77;;;5.80;;
2041;SDS011;1026;51.460;7.252;2024-01-16T05:57:28;8.37;;;5.70;;
2041;SDS011;1026;51.460;7.252;2024-01-16T06:00:05;6.43;;;5.60;;
2041;SDS011;1026;51.460;7.252;2024-01-16T06:02:33;5.90;;;4.70;;
2041;SDS011;1026;51.460;7.252;2024-01-16T06:05:00;6.57;;;5.87;;
2041;SDS011;1026;51.460;7.252;2024-01-16T06:07:33;6.63;;;5.00;;
2041;SDS011;1026;51.460;7.252;2024-01-16T06:10:06;6.27;;;5.27;;
2041;SDS011;1026;51.460;7.252;2024-01-16T06:12:40;5.30;;;4.73;;
2041;SDS011;1026;51.460;7.252;2024-01-16T06:15:07;9.03;;;4.97;;
2041;SDS011;1026;51.460;7.252;2024-01-16T06:17:35;8.57;;;5.23;;
2041;SDS011;1026;51.460;7.252;2024-01-16T06:20:16;6.17;;;4.53;;
2041;SDS011;1026;51.460;7.252;2024-01-16T06:22:43;7.90;;;5.60;;
2041;SDS011;1026;51.460;7.252;2024-01-16T06:25:16;5.63;;;4.70;;
2041;SDS011;1026;51.460;7.252;2024-01-16T06:27:43;6.33;;;5.17;;
2041;SDS011;1026;51.460;7.252;2024-01-16T06:30:10;7.27;;;6.57;;
2041;SDS011;1026;51.460;7.252;2024-01-16T06:32:44;8.10;;;6.80;;
2041;SDS011;1026;51.460;7.252;2024-01-16T06:35:12;7.13;;;5.80;;
2041;SDS011;1026;51.460;7.252;2024-01-16T06:37:46;8.77;;;6.47;;
2041;SDS011;1026;51.460;7.252;2024-01-16T06:40:13;10.20;;;6.97;;
2041;SDS011;1026;51.460;7.252;2024-01-16T06:42:40;8.40;;;6.90;;
2041;SDS011;1026;51.460;7.252;2024-01-16T06:45:13;10.20;;;7.50;;
2041;SDS011;1026;51.460;7.252;2024-01-16T06:47:42;11.50;;;7.90;;
2041;SDS011;1026;51.460;7.252;2024-01-16T06:50:09;12.47;;;11.03;;
2041;SDS011;1026;51.460;7.252;2024-01-16T06:52:42;11.43;;;9.63;;
2041;SDS011;1026;51.460;7.252;2024-01-16T06:55:09;10.83;;;8.43;;
2041;SDS011;1026;51.460;7.252;2024-01-16T06:57:36;10.40;;;8.77;;
2041;SDS011;1026;51.460;7.252;2024-01-16T07:00:09;12.60;;;8.80;;
2041;SDS011;1026;51.460;7.252;2024-01-16T07:02:37;16.23;;;11.00;;
2041;SDS011;1026;51.460;7.252;2024-01-16T07:05:17;17.10;;;8.50;;
2041;SDS011;1026;51.460;7.252;2024-01-16T07:07:57;12.60;;;9.03;;
2041;SDS011;1026;51.460;7.252;2024-01-16T07:10:31;14.90;;;11.30;;
2041;SDS011;1026;51.460;7.252;2024-01-16T07:12:59;9.70;;;8.70;;
2041;SDS011;1026;51.460;7.252;2024-01-16T07:15:26;10.37;;;7.20;;
2041;SDS011;1026;51.460;7.252;2024-01-16T07:17:59;7.90;;;7.10;;
2041;SDS011;1026;51.460;7.252;2024-01-16T07:20:31;9.03;;;8.00;;
2041;SDS011;1026;51.460;7.252;2024-01-16T07:22:58;11.70;;;9.27;;
2041;SDS011;1026;51.460;7.252;2024-01-16T07:25:33;20.57;;;8.80;;
2041;SDS011;1026;51.460;7.252;2024-01-16T07:28:06;11.00;;;8.23;;
2041;SDS011;1026;51.460;7.252;2024-01-16T07:30:34;8.97;;;7.00;;
2041;SDS011;1026;51.460;7.252;2024-01-16T07:33:01;10.93;;;7.40;;
2041;SDS011;1026;51.460;7.252;2024-01-16T07:35:34;11.60;;;8.50;;
2041;SDS011;1026;51.460;7.252;2024-01-16T07:38:08;9.63;;;7.40;;
2041;SDS011;1026;51.460;7.252;2024-01-16T07:40:35;10.10;;;7.90;;
2041;SDS011;1026;51.460;7.252;2024-01-16T07:43:08;9.13;;;7.03;;
2041;SDS011;1026;51.460;7.252;2024-01-16T07:45:35;10.60;;;7.10;;
2041;SDS011;1026;51.460;7.252;2024-01-16T07:48:09;7.13;;;6.03;;
2041;SDS011;1026;51.460;7.252;2024-01-16T07:50:36;9.97;;;5.90;;
2041;SDS011;1026;51.460;7.252;2024-01-16T07:53:09;11.20;;;7.37;;
2041;SDS011;1026;51.460;7.252;2024-01-16T07:55:38;6.80;;;5.80;;
2041;SDS011;1026;51.460;7.252;2024-01-16T07:58:11;6.53;;;5.80;;
2041;SDS011;1026;51.460;7.252;2024-01-16T08:00:45;7.60;;;6.50;;
2041;SDS011;1026;51.460;7.252;2024-01-16T08:03:12;7.20;;;6.10;;
2041;SDS011;1026;51.460;7.252;2024-01-16T08:05:47;10.53;;;6.00;;
2041;SDS011;1026;51.460;7.252;2024-01-16T08:08:20;6.40;;;5.00;;
2041;SDS011;1026;51.460;7.252;2024-01-16T08:11:02;8.00;;;5.60;;
2041;SDS011;1026;51.460;7.252;2024-01-16T08:13:29;6.30;;;5.70;;
2041;SDS011;1026;51.460;7.252;2024-01-16T08:15:56;6.63;;;4.33;;
2041;SDS011;1026;51.460;7.252;2024-01-16T08:18:29;10.20;;;5.13;;
2041;SDS011;1026;51.460;7.252;2024-01-16T08:20:58;11.40;;;5.60;;
2041;SDS011;1026;51.460;7.252;2024-01-16T08:23:31;7.43;;;4.57;;
2041;SDS011;1026;51.460;7.252;2024-01-16T08:25:58;7.00;;;4.60;;
2041;SDS011;1026;51.460;7.252;2024-01-16T08:28:31;8.23;;;4.93;;
2041;SDS011;1026;51.460;7.252;2024-01-16T08:31:04;7.13;;;3.40;;
2041;SDS011;1026;51.460;7.252;2024-01-16T08:33:38;5.70;;;4.53;;
2041;SDS011;1026;51.460;7.252;2024-01-16T08:36:12;14.23;;;5.00;;
2041;SDS011;1026;51.460;7.252;2024-01-16T08:38:46;9.77;;;4.53;;
2041;SDS011;1026;51.460;7.252;2024-01-16T08:41:13;6.20;;;5.00;;
2041;SDS011;1026;51.460;7.252;2024-01-16T08:43:40;7.83;;;5.03;;
2041;SDS011;1026;51.460;7.252;2024-01-16T08:46:13;6.03;;;3.17;;
2041;SDS011;1026;51.460;7.252;2024-01-16T08:48:41;5.60;;;3.97;;
2041;SDS011;1026;51.460;7.252;2024-01-16T08:51:15;7.57;;;3.53;;
2041;SDS011;1026;51.460;7.252;2024-01-16T08:53:50;5.80;;;3.83;;
2041;SDS011;1026;51.460;7.252;2024-01-16T08:56:23;7.10;;;4.40;;
2041;SDS011;1026;51.460;7.252;2024-01-16T08:58:50;6.03;;;3.33;;
2041;SDS011;1026;51.460;7.252;2024-01-16T09:01:17;4.20;;;3.37;;
2041;SDS011;1026;51.460;7.252;2024-01-16T09:03:50;10.13;;;4.30;;
2041;SDS011;1026;51.460;7.252;2024-01-16T09:06:24;6.90;;;3.60;;
2041;SDS011;1026;51.460;7.252;2024-01-16T09:08:57;4.23;;;3.30;;
2041;SDS011;1026;51.460;7.252;2024-01-16T09:11:31;7.00;;;3.63;;
2041;SDS011;1026;51.460;7.252;2024-01-16T09:14:04;3.57;;;3.27;;
2041;SDS011;1026;51.460;7.252;2024-01-16T09:16:31;8.90;;;3.30;;
2041;SDS011;1026;51.460;7.252;2024-01-16T09:19:07;5.57;;;3.67;;
2041;SDS011;1026;51.460;7.252;2024-01-16T09:21:35;5.33;;;2.77;;
2041;SDS011;1026;51.460;7.252;2024-01-16T09:24:02;5.60;;;3.80;;
2041;SDS011;1026;51.460;7.252;2024-01-16T09:26:35;5.20;;;3.13;;
2041;SDS011;1026;51.460;7.252;2024-01-16T09:29:02;6.10;;;3.17;;
2041;SDS011;1026;51.460;7.252;2024-01-16T09:31:29;7.40;;;3.77;;
2041;SDS011;1026;51.460;7.252;2024-01-16T09:34:23;8.73;;;3.43;;
2041;SDS011;1026;51.460;7.252;2024-01-16T09:39:53;8.10;;;3.00;;
2041;SDS011;1026;51.460;7.252;2024-01-16T09:42:20;3.27;;;2.97;;
2041;SDS011;1026;51.460;7.252;2024-01-16T09:44:47;6.47;;;2.90;;
2041;SDS011;1026;51.460;7.252;2024-01-16T09:47:24;7.67;;;3.47;;
2041;SDS011;1026;51.460;7.252;2024-01-16T09:50:01;3.17;;;2.80;;
2041;SDS011;1026;51.460;7.252;2024-01-16T09:52:45;5.03;;;3.10;;
2041;SDS011;1026;51.460;7.252;2024-01-16T09:55:23;2.97;;;2.37;;
2041;SDS011;1026;51.460;7.252;2024-01-16T10:00:55;6.00;;;3.23;;
2041;SDS011;1026;51.460;7.252;2024-01-16T10:03:22;5.20;;;2.90;;
2041;SDS011;1026;51.460;7.252;2024-01-16T10:05:51;7.40;;;3.60;;
2041;SDS011;1026;51.460;7.252;2024-01-16T10:08:51;5.10;;;3.10;;
2041;SDS011;1026;51.460;7.252;2024-01-16T10:11:24;3.03;;;2.13;;
2041;SDS011;1026;51.460;7.252;2024-01-16T10:13:58;3.63;;;2.70;;
2041;SDS011;1026;51.460;7.252;2024-01-16T10:19:33;5.20;;;2.60;;
2041;SDS011;1026;51.460;7.252;2024-01-16T10:22:13;3.70;;;2.27;;
2041;SDS011;1026;51.460;7.252;2024-01-16T10:25:03;3.75;;;2.80;;
2041;SDS011;1026;51.460;7.252;2024-01-16T10:27:39;5.30;;;2.93;;
2041;SDS011;1026;51.460;7.252;2024-01-16T10:30:13;4.60;;;2.80;;
2041;SDS011;1026;51.460;7.252;2024-01-16T10:32:40;6.80;;;3.43;;
2041;SDS011;1026;51.460;7.252;2024-01-16T10:35:10;6.37;;;2.47;;
2041;SDS011;1026;51.460;7.252;2024-01-16T10:37:51;6.13;;;2.83;;
2041;SDS011;1026;51.460;7.252;2024-01-16T10:40:23;7.50;;;3.07;;
2041;SDS011;1026;51.460;7.252;2024-01-16T10:43:18;4.80;;;2.90;;
2041;SDS011;1026;51.460;7.252;2024-01-16T10:45:52;8.23;;;4.23;;
2041;SDS011;1026;51.460;7.252;2024-01-16T10:48:41;5.50;;;3.30;;
2041;SDS011;1026;51.460;7.252;2024-01-16T10:51:10;5.07;;;2.77;;
2041;SDS011;1026;51.460;7.252;2024-01-16T10:56:32;3.37;;;2.63;;
2041;SDS011;1026;51.460;7.252;2024-01-16T10:59:14;7.87;;;3.07;;
2041;SDS011;1026;51.460;7.252;2024-01-16T11:01:59;3.50;;;2.40;;
2041;SDS011;1026;51.460;7.252;2024-01-16T11:04:28;4.70;;;3.17;;
2041;SDS011;1026;51.460;7.252;2024-01-16T11:07:01;4.40;;;2.57;;
2041;SDS011;1026;51.460;7.252;2024-01-16T11:09:44;3.93;;;2.40;;
2041;SDS011;1026;51.460;7.252;2024-01-16T11:12:18;2.30;;;2.10;;
2041;SDS011;1026;51.460;7.252;2024-01-16T11:14:49;4.53;;;2.83;;
2041;SDS011;1026;51.460;7.252;2024-01-16T11:17:19;5.03;;;2.97;;
2041;SDS011;1026;51.460;7.252;2024-01-16T11:19:53;6.93;;;2.70;;
2041;SDS011;1026;51.460;7.252;2024-01-16T11:22:47;3.90;;;2.57;;
2041;SDS011;1026;51.460;7.252;2024-01-16T11:25:43;5.80;;;3.70;;
2041;SDS011;1026;51.460;7.252;2024-01-16T11:28:37;6.20;;;2.90;;
2041;SDS011;1026;51.460;7.252;2024-01-16T11:33:58;5.83;;;3.60;;
2041;SDS011;1026;51.460;7.252;2024-01-16T11:36:47;3.87;;;3.37;;
2041;SDS011;1026;51.460;7.252;2024-01-16T11:39:23;14.43;;;3.83;;
2041;SDS011;1026;51.460;7.252;2024-01-16T11:42:05;9.57;;;3.30;;
2041;SDS011;1026;51.460;7.252;2024-01-16T11:44:47;6.47;;;3.20;;
2041;SDS011;1026;51.460;7.252;2024-01-16T11:47:27;3.43;;;2.60;;
2041;SDS011;1026;51.460;7.252;2024-01-16T11:50:08;6.90;;;2.67;;
2041;SDS011;1026;51.460;7.252;2024-01-16T11:52:42;3.53;;;2.83;;
2041;SDS011;1026;51.460;7.252;2024-01-16T11:55:25;5.53;;;3.10;;
2041;SDS011;1026;51.460;7.252;2024-01-16T11:58:07;5.43;;;3.17;;
2041;SDS011;1026;51.460;7.252;2024-01-16T12:01:02;5.27;;;2.80;;
2041;SDS011;1026;51.460;7.252;2024-01-16T12:03:32;5.03;;;2.57;;
2041;SDS011;1026;51.460;7.252;2024-01-16T12:06:15;5.03;;;3.33;;
2041;SDS011;1026;51.460;7.252;2024-01-16T12:09:13;4.03;;;2.77;;
2041;SDS011;1026;51.460;7.252;2024-01-16T12:12:01;3.63;;;2.70;;
2041;SDS011;1026;51.460;7.252;2024-01-16T12:14:29;7.63;;;3.43;;
2041;SDS011;1026;51.460;7.252;2024-01-16T12:17:12;5.37;;;2.80;;
2041;SDS011;1026;51.460;7.252;2024-01-16T12:19:47;6.07;;;3.00;;
2041;SDS011;1026;51.460;7.252;2024-01-16T12:22:16;5.23;;;3.23;;
2041;SDS011;1026;51.460;7.252;2024-01-16T12:24:57;4.33;;;2.23;;
2041;SDS011;1026;51.460;7.252;2024-01-16T12:27:25;5.43;;;3.03;;
2041;SDS011;1026;51.460;7.252;2024-01-16T12:30:06;7.73;;;3.93;;
2041;SDS011;1026;51.460;7.252;2024-01-16T12:32:37;6.00;;;3.40;;
2041;SDS011;1026;51.460;7.252;2024-01-16T12:35:21;3.67;;;3.30;;
2041;SDS011;1026;51.460;7.252;2024-01-16T12:37:57;6.00;;;3.03;;
2041;SDS011;1026;51.460;7.252;2024-01-16T12:41:01;4.37;;;3.33;;
2041;SDS011;1026;51.460;7.252;2024-01-16T12:46:54;9.73;;;3.43;;
2041;SDS011;1026;51.460;7.252;2024-01-16T12:49:31;10.67;;;3.63;;
2041;SDS011;1026;51.460;7.252;2024-01-16T12:52:14;4.53;;;3.83;;
2041;SDS011;1026;51.460;7.252;2024-01-16T12:54:43;4.83;;;3.57;;
2041;SDS011;1026;51.460;7.252;2024-01-16T12:57:18;5.00;;;2.90;;
2041;SDS011;1026;51.460;7.252;2024-01-16T12:59:47;10.57;;;4.00;;
2041;SDS011;1026;51.460;7.252;2024-01-16T13:02:24;6.13;;;3.03;;
2041;SDS011;1026;51.460;7.252;2024-01-16T13:04:58;5.50;;;3.47;;
2041;SDS011;1026;51.460;7.252;2024-01-16T13:07:33;9.93;;;3.07;;
2041;SDS011;1026;51.460;7.252;2024-01-16T13:10:07;3.20;;;2.60;;
2041;SDS011;1026;51.460;7.252;2024-01-16T13:12:42;6.53;;;3.90;;
2041;SDS011;1026;51.460;7.252;2024-01-16T13:15:09;4.90;;;3.60;;
2041;SDS011;1026;51.460;7.252;2024-01-16T13:17:37;6.67;;;3.57;;
2041;SDS011;1026;51.460;7.252;2024-01-16T13:20:11;8.67;;;4.07;;
2041;SDS011;1026;51.460;7.252;2024-01-16T13:22:39;11.40;;;6.63;;
2041;SDS011;1026;51.460;7.252;2024-01-16T13:25:12;8.70;;;3.53;;
2041;SDS011;1026;51.460;7.252;2024-01-16T13:27:47;4.90;;;3.33;;
2041;SDS011;1026;51.460;7.252;2024-01-16T13:30:14;8.03;;;4.30;;
2041;SDS011;1026;51.460;7.252;2024-01-16T13:32:47;6.60;;;4.03;;
2041;SDS011;1026;51.460;7.252;2024-01-16T13:35:14;9.00;;;3.73;;
2041;SDS011;1026;51.460;7.252;2024-01-16T13:37:42;8.30;;;3.40;;
2041;SDS011;1026;51.460;7.252;2024-01-16T13:40:16;6.47;;;3.60;;
2041;SDS011;1026;51.460;7.252;2024-01-16T13:42:48;7.10;;;3.77;;
2041;SDS011;1026;51.460;7.252;2024-01-16T13:45:22;3.63;;;2.87;;
2041;SDS011;1026;51.460;7.252;2024-01-16T13:47:49;6.33;;;4.10;;
2041;SDS011;1026;51.460;7.252;2024-01-16T13:50:16;3.37;;;3.07;;
2041;SDS011;1026;51.460;7.252;2024-01-16T13:52:53;3.40;;;3.10;;
2041;SDS011;1026;51.460;7.252;2024-01-16T13:55:21;12.50;;;4.40;;
2041;SDS011;1026;51.460;7.252;2024-01-16T13:57:55;3.90;;;3.03;;
2041;SDS011;1026;51.460;7.252;2024-01-16T14:00:29;11.80;;;3.80;;
2041;SDS011;1026;51.460;7.252;2024-01-16T14:03:04;5.47;;;3.70;;
2041;SDS011;1026;51.460;7.252;2024-01-16T14:05:39;8.63;;;3.77;;
2041;SDS011;1026;51.460;7.252;2024-01-16T14:08:19;6.90;;;4.10;;
2041;SDS011;1026;51.460;7.252;2024-01-16T14:10:54;8.17;;;4.23;;
2041;SDS011;1026;51.460;7.252;2024-01-16T14:13:21;7.13;;;4.17;;
2041;SDS011;1026;51.460;7.252;2024-01-16T14:15:50;7.13;;;3.97;;
2041;SDS011;1026;51.460;7.252;2024-01-16T14:18:24;6.90;;;4.50;;
2041;SDS011;1026;51.460;7.252;2024-01-16T14:20:51;4.20;;;3.90;;
2041;SDS011;1026;51.460;7.252;2024-01-16T14:23:17;8.63;;;4.63;;
2041;SDS011;1026;51.460;7.252;2024-01-16T14:25:53;5.10;;;3.73;;
2041;SDS011;1026;51.460;7.252;2024-01-16T14:28:20;11.37;;;3.83;;
2041;SDS011;1026;51.460;7.252;2024-01-16T14:30:59;4.40;;;3.30;;
2041;SDS011;1026;51.460;7.252;2024-01-16T14:33:26;7.17;;;4.70;;
2041;SDS011;1026;51.460;7.252;2024-01-16T14:36:00;3.37;;;2.10;;
2041;SDS011;1026;51.460;7.252;2024-01-16T14:38:28;3.70;;;3.33;;
2041;SDS011;1026;51.460;7.252;2024-01-16T14:41:01;5.00;;;3.17;;
2041;SDS011;1026;51.460;7.252;2024-01-16T14:43:29;5.73;;;3.70;;
2041;SDS011;1026;51.460;7.252;2024-01-16T14:45:56;7.80;;;4.13;;
2041;SDS011;1026;51.460;7.252;2024-01-16T14:48:31;4.70;;;3.40;;
2041;SDS011;1026;51.460;7.252;2024-01-16T14:50:58;4.30;;;3.90;;
2041;SDS011;1026;51.460;7.252;2024-01-16T14:53:31;4.47;;;3.37;;
2041;SDS011;1026;51.460;7.252;2024-01-16T14:55:58;5.43;;;3.80;;
2041;SDS011;1026;51.460;7.252;2024-01-16T14:58:32;4.77;;;3.70;;
2041;SDS011;1026;51.460;7.252;2024-01-16T15:01:05;3.33;;;2.63;;
2041;SDS011;1026;51.460;7.252;2024-01-16T15:03:33;10.47;;;5.33;;
2041;SDS011;1026;51.460;7.252;2024-01-16T15:06:07;3.97;;;2.93;;
2041;SDS011;1026;51.460;7.252;2024-01-16T15:08:48;4.07;;;3.70;;
2041;SDS011;1026;51.460;7.252;2024-01-16T15:11:22;4.70;;;3.40;;
2041;SDS011;1026;51.460;7.252;2024-01-16T15:13:49;6.27;;;3.90;;
2041;SDS011;1026;51.460;7.252;2024-01-16T15:16:16;3.40;;;3.07;;
2041;SDS011;1026;51.460;7.252;2024-01-16T15:18:51;3.80;;;3.03;;
2041;SDS011;1026;51.460;7.252;2024-01-16T15:21:18;8.63;;;4.47;;
2041;SDS011;1026;51.460;7.252;2024-01-16T15:23:46;6.33;;;3.87;;
2041;SDS011;1026;51.460;7.252;2024-01-16T15:26:19;4.97;;;3.77;;
2041;SDS011;1026;51.460;7.252;2024-01-16T15:28:48;5.00;;;4.03;;
2041;SDS011;1026;51.460;7.252;2024-01-16T15:31:16;3.77;;;3.47;;
2041;SDS011;1026;51.460;7.252;2024-01-16T15:33:50;4.40;;;3.60;;
2041;SDS011;1026;51.460;7.252;2024-01-16T15:36:18;13.13;;;4.93;;
2041;SDS011;1026;51.460;7.252;2024-01-16T15:38:45;8.00;;;3.70;;
2041;SDS011;1026;51.460;7.252;2024-01-16T15:41:19;5.00;;;4.10;;
2041;SDS011;1026;51.460;7.252;2024-01-16T15:43:46;6.03;;;4.07;;
2041;SDS011;1026;51.460;7.252;2024-01-16T15:46:13;4.27;;;3.50;;
2041;SDS011;1026;51.460;7.252;2024-01-16T15:48:47;6.30;;;4.33;;
2041;SDS011;1026;51.460;7.252;2024-01-16T15:51:17;5.67;;;4.57;;
2041;SDS011;1026;51.460;7.252;2024-01-16T15:53:44;8.00;;;4.70;;
2041;SDS011;1026;51.460;7.252;2024-01-16T15:56:19;5.13;;;4.10;;
2041;SDS011;1026;51.460;7.252;2024-01-16T15:58:53;5.83;;;4.40;;
2041;SDS011;1026;51.460;7.252;2024-01-16T16:01:36;6.03;;;3.80;;
2041;SDS011;1026;51.460;7.252;2024-01-16T16:04:11;5.47;;;4.97;;
2041;SDS011;1026;51.460;7.252;2024-01-16T16:06:39;5.87;;;4.03;;
2041;SDS011;1026;51.460;7.252;2024-01-16T16:12:32;3.37;;;3.00;;